sensor_id;sensor_type;location;lat;lon;timestamp;P1;durP1;ratioP1;P2;durP2;ratioP2
3133;SDS011;1577;49.912;10.924;2023-12-28T00:00:27;2.53;;;2.20;;
3133;SDS011;1577;49.912;10.924;2023-12-28T00:02:53;4.63;;;2.80;;
3133;SDS011;1577;49.912;10.924;2023-12-28T00:05:18;4.17;;;2.90;;
3133;SDS011;1577;49.912;10.924;2023-12-28T00:07:44;2.57;;;2.37;;
3133;SDS011;1577;49.912;10.924;2023-12-28T00:10:09;3.10;;;2.50;;
3133;SDS011;1577;49.912;10.924;2023-12-28T00:12:35;6.23;;;2.20;;
3133;SDS011;1577;49.912;10.924;2023-12-28T00:15:01;3.30;;;2.30;;
3133;SDS011;1577;49.912;10.924;2023-12-28T00:17:26;5.33;;;2.63;;
3133;SDS011;1577;49.912;10.924;2023-12-28T00:19:52;2.80;;;2.23;;
3133;SDS011;1577;49.912;10.924;2023-12-28T00:22:17;3.57;;;3.27;;
3133;SDS011;1577;49.912;10.924;2023-12-28T00:24:43;2.60;;;2.30;;
3133;SDS011;1577;49.912;10.924;2023-12-28T00:27:09;3.30;;;2.57;;
3133;SDS011;1577;49.912;10.924;2023-12-28T00:29:34;5.47;;;2.90;;
3133;SDS011;1577;49.912;10.924;2023-12-28T00:32:03;3.57;;;2.57;;
3133;SDS011;1577;49.912;10.924;2023-12-28T00:34:30;3.83;;;2.77;;
3133;SDS011;1577;49.912;10.924;2023-12-28T00:36:55;3.47;;;2.30;;
3133;SDS011;1577;49.912;10.924;2023-12-28T00:39:21;3.33;;;2.87;;
3133;SDS011;1577;49.912;10.924;2023-12-28T00:41:47;3.67;;;2.67;;
3133;SDS011;1577;49.912;10.924;2023-12-28T00:44:12;4.50;;;2.97;;
3133;SDS011;1577;49.912;10.924;2023-12-28T00:46:38;6.10;;;3.10;;
3133;SDS011;1577;49.912;10.924;2023-12-28T00:49:03;5.10;;;3.67;;
3133;SDS011;1577;49.912;10.924;2023-12-28T00:51:29;5.63;;;2.70;;
3133;SDS011;1577;49.912;10.924;2023-12-28T00:53:55;4.10;;;3.20;;
3133;SDS011;1577;49.912;10.924;2023-12-28T00:56:20;3.33;;;2.60;;
3133;SDS011;1577;49.912;10.924;2023-12-28T00:58:46;3.00;;;2.70;;
3133;SDS011;1577;49.912;10.924;2023-12-28T01:01:12;4.00;;;3.60;;
3133;SDS011;1577;49.912;10.924;2023-12-28T01:03:37;5.27;;;2.90;;
3133;SDS011;1577;49.912;10.924;2023-12-28T01:06:04;4.97;;;2.87;;
3133;SDS011;1577;49.912;10.924;2023-12-28T01:08:30;5.60;;;2.57;;
3133;SDS011;1577;49.912;10.924;2023-12-28T01:10:56;5.67;;;3.30;;
3133;SDS011;1577;49.912;10.924;2023-12-28T01:13:21;3.17;;;2.87;;
3133;SDS011;1577;49.912;10.924;2023-12-28T01:15:47;3.10;;;2.73;;
3133;SDS011;1577;49.912;10.924;2023-12-28T01:18:12;4.27;;;3.10;;
3133;SDS011;1577;49.912;10.924;2023-12-28T01:20:38;5.80;;;3.20;;
3133;SDS011;1577;49.912;10.924;2023-12-28T01:23:03;3.63;;;2.70;;
3133;SDS011;1577;49.912;10.924;2023-12-28T01:25:29;3.77;;;3.27;;
3133;SDS011;1577;49.912;10.924;2023-12-28T01:27:54;4.67;;;3.60;;
3133;SDS011;1577;49.912;10.924;2023-12-28T01:30:20;2.77;;;2.57;;
3133;SDS011;1577;49.912;10.924;2023-12-28T01:32:46;6.97;;;2.90;;
3133;SDS011;1577;49.912;10.924;2023-12-28T01:35:11;3.87;;;3.03;;
3133;SDS011;1577;49.912;10.924;2023-12-28T01:37:37;2.70;;;2.50;;
3133;SDS011;1577;49.912;10.924;2023-12-28T01:40:02;3.73;;;3.33;;
3133;SDS011;1577;49.912;10.924;2023-12-28T01:42:28;3.43;;;3.10;;
3133;SDS011;1577;49.912;10.924;2023-12-28T01:44:55;3.30;;;3.00;;
3133;SDS011;1577;49.912;10.924;2023-12-28T01:47:22;7.43;;;4.40;;
3133;SDS011;1577;49.912;10.924;2023-12-28T01:49:49;5.33;;;3.00;;
3133;SDS011;1577;49.912;10.924;2023-12-28T01:52:15;3.70;;;3.00;;
3133;SDS011;1577;49.912;10.924;2023-12-28T01:54:40;5.33;;;3.97;;
3133;SDS011;1577;49.912;10.924;2023-12-28T01:57:06;3.37;;;2.70;;
3133;SDS011;1577;49.912;10.924;2023-12-28T01:59:32;4.00;;;2.57;;
3133;SDS011;1577;49.912;10.924;2023-12-28T02:01:58;5.80;;;3.13;;
3133;SDS011;1577;49.912;10.924;2023-12-28T02:04:24;4.00;;;3.00;;
3133;SDS011;1577;49.912;10.924;2023-12-28T02:06:56;4.90;;;3.53;;
3133;SDS011;1577;49.912;10.924;2023-12-28T02:09:23;4.40;;;3.13;;
3133;SDS011;1577;49.912;10.924;2023-12-28T02:11:49;5.03;;;2.87;;
3133;SDS011;1577;49.912;10.924;2023-12-28T02:14:15;4.90;;;3.07;;
3133;SDS011;1577;49.912;10.924;2023-12-28T02:16:43;5.70;;;3.03;;
3133;SDS011;1577;49.912;10.924;2023-12-28T02:19:20;4.50;;;3.17;;
3133;SDS011;1577;49.912;10.924;2023-12-28T02:21:57;4.13;;;3.17;;
3133;SDS011;1577;49.912;10.924;2023-12-28T02:24:24;3.43;;;2.60;;
3133;SDS011;1577;49.912;10.924;2023-12-28T02:26:50;3.97;;;2.67;;
3133;SDS011;1577;49.912;10.924;2023-12-28T02:29:15;3.27;;;2.63;;
3133;SDS011;1577;49.912;10.924;2023-12-28T02:34:27;5.57;;;2.70;;
3133;SDS011;1577;49.912;10.924;2023-12-28T02:36:59;4.57;;;2.50;;
3133;SDS011;1577;49.912;10.924;2023-12-28T02:39:26;3.50;;;2.77;;
3133;SDS011;1577;49.912;10.924;2023-12-28T02:41:54;3.43;;;2.80;;
3133;SDS011;1577;49.912;10.924;2023-12-28T02:44:20;2.93;;;2.60;;
3133;SDS011;1577;49.912;10.924;2023-12-28T02:46:46;3.77;;;2.67;;
3133;SDS011;1577;49.912;10.924;2023-12-28T02:49:12;3.73;;;2.80;;
3133;SDS011;1577;49.912;10.924;2023-12-28T02:51:37;4.33;;;2.50;;
3133;SDS011;1577;49.912;10.924;2023-12-28T02:54:03;3.70;;;2.97;;
3133;SDS011;1577;49.912;10.924;2023-12-28T02:56:29;4.40;;;2.40;;
3133;SDS011;1577;49.912;10.924;2023-12-28T02:58:56;3.57;;;2.60;;
3133;SDS011;1577;49.912;10.924;2023-12-28T03:01:22;3.53;;;2.93;;
3133;SDS011;1577;49.912;10.924;2023-12-28T03:03:47;3.80;;;2.80;;
3133;SDS011;1577;49.912;10.924;2023-12-28T03:06:13;4.40;;;2.97;;
3133;SDS011;1577;49.912;10.924;2023-12-28T03:08:38;3.30;;;2.27;;
3133;SDS011;1577;49.912;10.924;2023-12-28T03:11:04;2.83;;;2.40;;
3133;SDS011;1577;49.912;10.924;2023-12-28T03:13:29;3.30;;;2.53;;
3133;SDS011;1577;49.912;10.924;2023-12-28T03:15:56;4.10;;;2.83;;
3133;SDS011;1577;49.912;10.924;2023-12-28T03:18:22;3.33;;;2.40;;
3133;SDS011;1577;49.912;10.924;2023-12-28T03:20:48;3.97;;;2.73;;
3133;SDS011;1577;49.912;10.924;2023-12-28T03:23:13;3.43;;;2.27;;
3133;SDS011;1577;49.912;10.924;2023-12-28T03:25:39;5.03;;;2.43;;
3133;SDS011;1577;49.912;10.924;2023-12-28T03:28:04;3.90;;;2.30;;
3133;SDS011;1577;49.912;10.924;2023-12-28T03:30:30;4.73;;;3.13;;
3133;SDS011;1577;49.912;10.924;2023-12-28T03:32:56;3.70;;;2.10;;
3133;SDS011;1577;49.912;10.924;2023-12-28T03:35:21;6.23;;;1.80;;
3133;SDS011;1577;49.912;10.924;2023-12-28T03:37:47;2.50;;;1.93;;
3133;SDS011;1577;49.912;10.924;2023-12-28T03:40:12;2.47;;;2.10;;
3133;SDS011;1577;49.912;10.924;2023-12-28T03:42:38;5.10;;;2.47;;
3133;SDS011;1577;49.912;10.924;2023-12-28T03:45:04;3.33;;;2.17;;
3133;SDS011;1577;49.912;10.924;2023-12-28T03:47:30;2.70;;;2.00;;
3133;SDS011;1577;49.912;10.924;2023-12-28T03:49:56;2.60;;;2.40;;
3133;SDS011;1577;49.912;10.924;2023-12-28T03:52:22;2.40;;;2.20;;
3133;SDS011;1577;49.912;10.924;2023-12-28T03:54:50;2.40;;;1.90;;
3133;SDS011;1577;49.912;10.924;2023-12-28T03:57:16;3.27;;;2.20;;
3133;SDS011;1577;49.912;10.924;2023-12-28T03:59:41;2.33;;;1.70;;
3133;SDS011;1577;49.912;10.924;2023-12-28T04:02:07;2.53;;;2.23;;
3133;SDS011;1577;49.912;10.924;2023-12-28T04:04:32;2.03;;;1.80;;
3133;SDS011;1577;49.912;10.924;2023-12-28T04:06:58;4.03;;;3.63;;
3133;SDS011;1577;49.912;10.924;2023-12-28T04:09:24;2.90;;;2.27;;
3133;SDS011;1577;49.912;10.924;2023-12-28T04:11:49;3.13;;;2.53;;
3133;SDS011;1577;49.912;10.924;2023-12-28T04:14:15;2.40;;;2.00;;
3133;SDS011;1577;49.912;10.924;2023-12-28T04:16:40;2.13;;;1.93;;
3133;SDS011;1577;49.912;10.924;2023-12-28T04:19:06;5.17;;;2.20;;
3133;SDS011;1577;49.912;10.924;2023-12-28T04:21:31;3.73;;;2.20;;
3133;SDS011;1577;49.912;10.924;2023-12-28T04:23:57;3.30;;;1.93;;
3133;SDS011;1577;49.912;10.924;2023-12-28T04:26:22;2.37;;;1.93;;
3133;SDS011;1577;49.912;10.924;2023-12-28T04:28:48;2.63;;;1.90;;
3133;SDS011;1577;49.912;10.924;2023-12-28T04:31:14;2.97;;;2.30;;
3133;SDS011;1577;49.912;10.924;2023-12-28T04:33:39;2.50;;;2.20;;
3133;SDS011;1577;49.912;10.924;2023-12-28T04:36:05;2.73;;;2.00;;
3133;SDS011;1577;49.912;10.924;2023-12-28T04:38:31;2.40;;;2.10;;
3133;SDS011;1577;49.912;10.924;2023-12-28T04:40:59;3.97;;;2.60;;
3133;SDS011;1577;49.912;10.924;2023-12-28T04:43:26;3.13;;;2.10;;
3133;SDS011;1577;49.912;10.924;2023-12-28T04:45:51;3.23;;;2.20;;
3133;SDS011;1577;49.912;10.924;2023-12-28T04:48:17;2.30;;;2.10;;
3133;SDS011;1577;49.912;10.924;2023-12-28T04:50:48;2.50;;;2.10;;
3133;SDS011;1577;49.912;10.924;2023-12-28T04:53:14;3.23;;;2.10;;
3133;SDS011;1577;49.912;10.924;2023-12-28T04:55:40;3.27;;;1.93;;
3133;SDS011;1577;49.912;10.924;2023-12-28T04:58:06;2.07;;;1.97;;
3133;SDS011;1577;49.912;10.924;2023-12-28T05:00:32;3.47;;;2.10;;
3133;SDS011;1577;49.912;10.924;2023-12-28T05:02:57;3.77;;;1.90;;
3133;SDS011;1577;49.912;10.924;2023-12-28T05:05:23;3.37;;;2.20;;
3133;SDS011;1577;49.912;10.924;2023-12-28T05:07:48;2.40;;;2.03;;
3133;SDS011;1577;49.912;10.924;2023-12-28T05:10:14;3.60;;;2.20;;
3133;SDS011;1577;49.912;10.924;2023-12-28T05:12:40;3.03;;;2.50;;
3133;SDS011;1577;49.912;10.924;2023-12-28T05:15:05;2.63;;;1.93;;
3133;SDS011;1577;49.912;10.924;2023-12-28T05:17:31;10.40;;;2.60;;
3133;SDS011;1577;49.912;10.924;2023-12-28T05:19:57;3.60;;;2.33;;
3133;SDS011;1577;49.912;10.924;2023-12-28T05:22:22;2.77;;;2.07;;
3133;SDS011;1577;49.912;10.924;2023-12-28T05:24:48;2.10;;;1.90;;
3133;SDS011;1577;49.912;10.924;2023-12-28T05:27:13;2.13;;;1.90;;
3133;SDS011;1577;49.912;10.924;2023-12-28T05:29:39;2.70;;;1.77;;
3133;SDS011;1577;49.912;10.924;2023-12-28T05:32:05;2.87;;;2.10;;
3133;SDS011;1577;49.912;10.924;2023-12-28T05:34:31;3.40;;;1.90;;
3133;SDS011;1577;49.912;10.924;2023-12-28T05:36:56;2.80;;;2.30;;
3133;SDS011;1577;49.912;10.924;2023-12-28T05:39:22;3.10;;;2.57;;
3133;SDS011;1577;49.912;10.924;2023-12-28T05:41:47;1.93;;;1.83;;
3133;SDS011;1577;49.912;10.924;2023-12-28T05:44:15;7.43;;;2.03;;
3133;SDS011;1577;49.912;10.924;2023-12-28T05:46:41;2.53;;;1.80;;
3133;SDS011;1577;49.912;10.924;2023-12-28T05:49:07;4.00;;;2.03;;
3133;SDS011;1577;49.912;10.924;2023-12-28T05:51:39;3.63;;;2.33;;
3133;SDS011;1577;49.912;10.924;2023-12-28T05:54:06;3.37;;;2.17;;
3133;SDS011;1577;49.912;10.924;2023-12-28T05:56:32;3.03;;;1.97;;
3133;SDS011;1577;49.912;10.924;2023-12-28T05:58:57;2.20;;;1.80;;
3133;SDS011;1577;49.912;10.924;2023-12-28T06:01:23;1.77;;;1.63;;
3133;SDS011;1577;49.912;10.924;2023-12-28T06:03:49;3.53;;;2.53;;
3133;SDS011;1577;49.912;10.924;2023-12-28T06:06:17;2.80;;;2.33;;
3133;SDS011;1577;49.912;10.924;2023-12-28T06:08:43;2.03;;;1.90;;
3133;SDS011;1577;49.912;10.924;2023-12-28T06:11:08;2.30;;;2.10;;
3133;SDS011;1577;49.912;10.924;2023-12-28T06:13:34;2.80;;;2.23;;
3133;SDS011;1577;49.912;10.924;2023-12-28T06:16:00;2.80;;;2.20;;
3133;SDS011;1577;49.912;10.924;2023-12-28T06:18:25;3.20;;;2.53;;
3133;SDS011;1577;49.912;10.924;2023-12-28T06:20:51;3.93;;;3.10;;
3133;SDS011;1577;49.912;10.924;2023-12-28T06:23:16;4.90;;;2.60;;
3133;SDS011;1577;49.912;10.924;2023-12-28T06:25:42;4.00;;;2.60;;
3133;SDS011;1577;49.912;10.924;2023-12-28T06:28:07;2.80;;;2.40;;
3133;SDS011;1577;49.912;10.924;2023-12-28T06:30:33;3.07;;;2.43;;
3133;SDS011;1577;49.912;10.924;2023-12-28T06:32:58;3.00;;;2.27;;
3133;SDS011;1577;49.912;10.924;2023-12-28T06:35:24;5.17;;;2.10;;
3133;SDS011;1577;49.912;10.924;2023-12-28T06:37:50;4.30;;;2.40;;
3133;SDS011;1577;49.912;10.924;2023-12-28T06:40:15;2.50;;;1.83;;
3133;SDS011;1577;49.912;10.924;2023-12-28T06:42:41;2.20;;;2.00;;
3133;SDS011;1577;49.912;10.924;2023-12-28T06:45:08;3.50;;;1.90;;
3133;SDS011;1577;49.912;10.924;2023-12-28T06:47:34;2.03;;;1.83;;
3133;SDS011;1577;49.912;10.924;2023-12-28T06:50:00;2.37;;;2.00;;
3133;SDS011;1577;49.912;10.924;2023-12-28T06:52:25;3.70;;;2.30;;
3133;SDS011;1577;49.912;10.924;2023-12-28T06:54:51;3.33;;;2.37;;
3133;SDS011;1577;49.912;10.924;2023-12-28T06:57:18;2.87;;;2.40;;
3133;SDS011;1577;49.912;10.924;2023-12-28T06:59:43;2.33;;;1.93;;
3133;SDS011;1577;49.912;10.924;2023-12-28T07:02:09;3.67;;;2.40;;
3133;SDS011;1577;49.912;10.924;2023-12-28T07:04:34;3.00;;;1.77;;
3133;SDS011;1577;49.912;10.924;2023-12-28T07:07:00;3.60;;;2.20;;
3133;SDS011;1577;49.912;10.924;2023-12-28T07:09:26;2.33;;;2.07;;
3133;SDS011;1577;49.912;10.924;2023-12-28T07:11:51;2.03;;;1.63;;
3133;SDS011;1577;49.912;10.924;2023-12-28T07:14:17;3.20;;;2.43;;
3133;SDS011;1577;49.912;10.924;2023-12-28T07:16:42;2.10;;;1.90;;
3133;SDS011;1577;49.912;10.924;2023-12-28T07:19:08;3.20;;;2.00;;
3133;SDS011;1577;49.912;10.924;2023-12-28T07:21:33;3.13;;;1.90;;
3133;SDS011;1577;49.912;10.924;2023-12-28T07:23:59;2.60;;;2.30;;
3133;SDS011;1577;49.912;10.924;2023-12-28T07:26:24;2.17;;;1.97;;
3133;SDS011;1577;49.912;10.924;2023-12-28T07:28:50;4.30;;;2.17;;
3133;SDS011;1577;49.912;10.924;2023-12-28T07:31:25;2.70;;;2.07;;
3133;SDS011;1577;49.912;10.924;2023-12-28T07:33:52;3.20;;;2.00;;
3133;SDS011;1577;49.912;10.924;2023-12-28T07:36:18;3.00;;;2.10;;
3133;SDS011;1577;49.912;10.924;2023-12-28T07:38:44;2.60;;;1.87;;
3133;SDS011;1577;49.912;10.924;2023-12-28T07:41:10;1.77;;;1.50;;
3133;SDS011;1577;49.912;10.924;2023-12-28T07:43:36;3.20;;;2.10;;
3133;SDS011;1577;49.912;10.924;2023-12-28T07:46:01;3.00;;;1.67;;
3133;SDS011;1577;49.912;10.924;2023-12-28T07:48:27;4.50;;;2.03;;
3133;SDS011;1577;49.912;10.924;2023-12-28T07:50:55;4.23;;;2.73;;
3133;SDS011;1577;49.912;10.924;2023-12-28T07:53:21;3.30;;;2.57;;
3133;SDS011;1577;49.912;10.924;2023-12-28T07:55:47;3.47;;;2.17;;
3133;SDS011;1577;49.912;10.924;2023-12-28T07:58:12;4.60;;;2.33;;
3133;SDS011;1577;49.912;10.924;2023-12-28T08:00:38;3.00;;;1.77;;
3133;SDS011;1577;49.912;10.924;2023-12-28T08:03:04;2.93;;;2.00;;
3133;SDS011;1577;49.912;10.924;2023-12-28T08:05:29;7.90;;;2.67;;
3133;SDS011;1577;49.912;10.924;2023-12-28T08:07:55;3.80;;;2.00;;
3133;SDS011;1577;49.912;10.924;2023-12-28T08:10:20;3.00;;;2.20;;
3133;SDS011;1577;49.912;10.924;2023-12-28T08:12:46;3.77;;;2.30;;
3133;SDS011;1577;49.912;10.924;2023-12-28T08:15:11;2.80;;;2.20;;
3133;SDS011;1577;49.912;10.924;2023-12-28T08:17:37;6.03;;;3.30;;
3133;SDS011;1577;49.912;10.924;2023-12-28T08:20:03;2.77;;;2.43;;
3133;SDS011;1577;49.912;10.924;2023-12-28T08:22:30;4.00;;;3.43;;
3133;SDS011;1577;49.912;10.924;2023-12-28T08:24:56;2.30;;;1.93;;
3133;SDS011;1577;49.912;10.924;2023-12-28T08:27:22;2.60;;;2.23;;
3133;SDS011;1577;49.912;10.924;2023-12-28T08:29:48;2.90;;;2.40;;
3133;SDS011;1577;49.912;10.924;2023-12-28T08:32:13;3.30;;;2.43;;
3133;SDS011;1577;49.912;10.924;2023-12-28T08:34:39;3.10;;;2.40;;
3133;SDS011;1577;49.912;10.924;2023-12-28T08:37:05;6.13;;;3.97;;
3133;SDS011;1577;49.912;10.924;2023-12-28T08:39:30;2.87;;;2.40;;
3133;SDS011;1577;49.912;10.924;2023-12-28T08:41:56;3.67;;;2.97;;
3133;SDS011;1577;49.912;10.924;2023-12-28T08:44:22;3.67;;;2.43;;
3133;SDS011;1577;49.912;10.924;2023-12-28T08:46:48;2.40;;;2.10;;
3133;SDS011;1577;49.912;10.924;2023-12-28T08:49:13;2.53;;;2.33;;
3133;SDS011;1577;49.912;10.924;2023-12-28T08:51:40;5.87;;;3.40;;
3133;SDS011;1577;49.912;10.924;2023-12-28T08:54:06;6.50;;;4.40;;
3133;SDS011;1577;49.912;10.924;2023-12-28T08:56:33;5.60;;;4.43;;
3133;SDS011;1577;49.912;10.924;2023-12-28T08:58:58;3.57;;;3.20;;
3133;SDS011;1577;49.912;10.924;2023-12-28T09:01:24;3.73;;;2.93;;
3133;SDS011;1577;49.912;10.924;2023-12-28T09:03:54;7.30;;;3.50;;
3133;SDS011;1577;49.912;10.924;2023-12-28T09:06:20;3.20;;;2.80;;
3133;SDS011;1577;49.912;10.924;2023-12-28T09:08:47;5.20;;;4.20;;
3133;SDS011;1577;49.912;10.924;2023-12-28T09:11:15;6.80;;;4.93;;
3133;SDS011;1577;49.912;10.924;2023-12-28T09:13:41;3.13;;;2.73;;
3133;SDS011;1577;49.912;10.924;2023-12-28T09:16:10;4.67;;;3.37;;
3133;SDS011;1577;49.912;10.924;2023-12-28T09:18:37;5.20;;;3.80;;
3133;SDS011;1577;49.912;10.924;2023-12-28T09:21:04;4.53;;;2.93;;
3133;SDS011;1577;49.912;10.924;2023-12-28T09:23:33;4.87;;;3.60;;
3133;SDS011;1577;49.912;10.924;2023-12-28T09:26:00;4.80;;;3.33;;
3133;SDS011;1577;49.912;10.924;2023-12-28T09:28:26;9.40;;;5.37;;
3133;SDS011;1577;49.912;10.924;2023-12-28T09:30:52;5.07;;;3.00;;
3133;SDS011;1577;49.912;10.924;2023-12-28T09:33:17;6.50;;;3.93;;
3133;SDS011;1577;49.912;10.924;2023-12-28T09:35:43;6.90;;;4.40;;
3133;SDS011;1577;49.912;10.924;2023-12-28T09:38:09;3.87;;;2.80;;
3133;SDS011;1577;49.912;10.924;2023-12-28T09:40:37;3.50;;;2.67;;
3133;SDS011;1577;49.912;10.924;2023-12-28T09:43:17;2.90;;;2.37;;
3133;SDS011;1577;49.912;10.924;2023-12-28T09:45:51;5.07;;;3.13;;
3133;SDS011;1577;49.912;10.924;2023-12-28T09:48:17;2.47;;;2.20;;
3133;SDS011;1577;49.912;10.924;2023-12-28T09:50:45;2.93;;;2.03;;
3133;SDS011;1577;49.912;10.924;2023-12-28T09:53:14;3.37;;;2.47;;
3133;SDS011;1577;49.912;10.924;2023-12-28T09:55:39;2.50;;;1.77;;
3133;SDS011;1577;49.912;10.924;2023-12-28T09:58:05;3.00;;;2.00;;
3133;SDS011;1577;49.912;10.924;2023-12-28T10:00:32;2.87;;;2.67;;
3133;SDS011;1577;49.912;10.924;2023-12-28T10:02:57;2.43;;;1.83;;
3133;SDS011;1577;49.912;10.924;2023-12-28T10:05:23;1.53;;;1.43;;
3133;SDS011;1577;49.912;10.924;2023-12-28T10:07:49;1.63;;;1.53;;
3133;SDS011;1577;49.912;10.924;2023-12-28T10:10:15;1.70;;;1.53;;
3133;SDS011;1577;49.912;10.924;2023-12-28T10:12:42;2.40;;;1.77;;
3133;SDS011;1577;49.912;10.924;2023-12-28T10:15:08;3.03;;;2.37;;
3133;SDS011;1577;49.912;10.924;2023-12-28T10:17:34;2.60;;;2.37;;
3133;SDS011;1577;49.912;10.924;2023-12-28T10:20:03;2.63;;;1.87;;
3133;SDS011;1577;49.912;10.924;2023-12-28T10:22:29;2.70;;;2.20;;
3133;SDS011;1577;49.912;10.924;2023-12-28T10:24:58;2.90;;;2.07;;
3133;SDS011;1577;49.912;10.924;2023-12-28T10:27:25;4.03;;;2.07;;
3133;SDS011;1577;49.912;10.924;2023-12-28T10:29:53;3.57;;;3.10;;
3133;SDS011;1577;49.912;10.924;2023-12-28T10:32:22;4.23;;;3.40;;
3133;SDS011;1577;49.912;10.924;2023-12-28T10:34:50;2.90;;;2.30;;
3133;SDS011;1577;49.912;10.924;2023-12-28T10:37:20;2.83;;;2.63;;
3133;SDS011;1577;49.912;10.924;2023-12-28T10:39:47;2.47;;;1.73;;
3133;SDS011;1577;49.912;10.924;2023-12-28T10:42:16;2.10;;;1.90;;
3133;SDS011;1577;49.912;10.924;2023-12-28T10:45:07;2.17;;;1.97;;
3133;SDS011;1577;49.912;10.924;2023-12-28T10:47:43;3.30;;;2.30;;
3133;SDS011;1577;49.912;10.924;2023-12-28T10:50:10;4.03;;;2.63;;
3133;SDS011;1577;49.912;10.924;2023-12-28T10:52:36;2.77;;;2.47;;
3133;SDS011;1577;49.912;10.924;2023-12-28T10:55:19;4.17;;;3.20;;
3133;SDS011;1577;49.912;10.924;2023-12-28T11:00:22;2.33;;;2.07;;
3133;SDS011;1577;49.912;10.924;2023-12-28T11:02:52;4.60;;;2.30;;
3133;SDS011;1577;49.912;10.924;2023-12-28T11:05:19;2.90;;;2.60;;
3133;SDS011;1577;49.912;10.924;2023-12-28T11:07:46;3.40;;;3.03;;
3133;SDS011;1577;49.912;10.924;2023-12-28T11:10:13;2.43;;;2.20;;
3133;SDS011;1577;49.912;10.924;2023-12-28T11:12:39;2.47;;;2.27;;
3133;SDS011;1577;49.912;10.924;2023-12-28T11:15:05;5.10;;;3.33;;
3133;SDS011;1577;49.912;10.924;2023-12-28T11:17:33;6.67;;;4.37;;
3133;SDS011;1577;49.912;10.924;2023-12-28T11:20:02;5.87;;;4.50;;
3133;SDS011;1577;49.912;10.924;2023-12-28T11:22:30;6.23;;;3.50;;
3133;SDS011;1577;49.912;10.924;2023-12-28T11:24:56;6.90;;;5.17;;
3133;SDS011;1577;49.912;10.924;2023-12-28T11:27:22;4.67;;;3.70;;
3133;SDS011;1577;49.912;10.924;2023-12-28T11:29:48;3.57;;;3.27;;
3133;SDS011;1577;49.912;10.924;2023-12-28T11:32:14;2.87;;;2.57;;
3133;SDS011;1577;49.912;10.924;2023-12-28T11:34:39;3.53;;;3.17;;
3133;SDS011;1577;49.912;10.924;2023-12-28T11:37:15;7.43;;;5.80;;
3133;SDS011;1577;49.912;10.924;2023-12-28T11:39:45;5.30;;;4.70;;
3133;SDS011;1577;49.912;10.924;2023-12-28T11:42:13;6.17;;;3.50;;
3133;SDS011;1577;49.912;10.924;2023-12-28T11:44:45;3.90;;;3.50;;
3133;SDS011;1577;49.912;10.924;2023-12-28T11:49:47;5.50;;;3.73;;
3133;SDS011;1577;49.912;10.924;2023-12-28T11:52:29;6.87;;;4.40;;
3133;SDS011;1577;49.912;10.924;2023-12-28T11:54:56;5.53;;;3.30;;
3133;SDS011;1577;49.912;10.924;2023-12-28T11:57:22;5.30;;;3.80;;
3133;SDS011;1577;49.912;10.924;2023-12-28T11:59:52;6.60;;;4.00;;
3133;SDS011;1577;49.912;10.924;2023-12-28T12:02:20;6.70;;;4.57;;
3133;SDS011;1577;49.912;10.924;2023-12-28T12:04:46;7.63;;;4.40;;
3133;SDS011;1577;49.912;10.924;2023-12-28T12:07:11;9.70;;;6.33;;
3133;SDS011;1577;49.912;10.924;2023-12-28T12:09:37;11.20;;;7.20;;
3133;SDS011;1577;49.912;10.924;2023-12-28T12:12:03;9.47;;;6.80;;
3133;SDS011;1577;49.912;10.924;2023-12-28T12:14:29;5.00;;;4.20;;
3133;SDS011;1577;49.912;10.924;2023-12-28T12:16:56;3.97;;;3.57;;
3133;SDS011;1577;49.912;10.924;2023-12-28T12:19:23;5.13;;;4.60;;
3133;SDS011;1577;49.912;10.924;2023-12-28T12:21:51;4.23;;;3.30;;
3133;SDS011;1577;49.912;10.924;2023-12-28T12:24:17;4.00;;;3.60;;
3133;SDS011;1577;49.912;10.924;2023-12-28T12:26:45;3.00;;;2.80;;
3133;SDS011;1577;49.912;10.924;2023-12-28T12:29:11;2.83;;;2.00;;
3133;SDS011;1577;49.912;10.924;2023-12-28T12:31:37;3.20;;;2.83;;
3133;SDS011;1577;49.912;10.924;2023-12-28T12:34:06;3.30;;;2.77;;
3133;SDS011;1577;49.912;10.924;2023-12-28T12:36:40;3.90;;;3.33;;
3133;SDS011;1577;49.912;10.924;2023-12-28T12:39:06;3.37;;;2.63;;
3133;SDS011;1577;49.912;10.924;2023-12-28T12:41:33;2.67;;;2.40;;
3133;SDS011;1577;49.912;10.924;2023-12-28T12:43:59;4.10;;;2.70;;
3133;SDS011;1577;49.912;10.924;2023-12-28T12:46:25;2.47;;;2.27;;
3133;SDS011;1577;49.912;10.924;2023-12-28T12:48:55;2.70;;;2.50;;
3133;SDS011;1577;49.912;10.924;2023-12-28T12:51:21;3.53;;;2.80;;
3133;SDS011;1577;49.912;10.924;2023-12-28T12:53:47;4.23;;;2.70;;
3133;SDS011;1577;49.912;10.924;2023-12-28T12:56:12;3.50;;;2.40;;
3133;SDS011;1577;49.912;10.924;2023-12-28T12:58:38;5.27;;;2.30;;
3133;SDS011;1577;49.912;10.924;2023-12-28T13:01:04;3.13;;;1.80;;
3133;SDS011;1577;49.912;10.924;2023-12-28T13:03:29;2.47;;;1.50;;
3133;SDS011;1577;49.912;10.924;2023-12-28T13:05:55;1.80;;;1.70;;
3133;SDS011;1577;49.912;10.924;2023-12-28T13:08:21;3.27;;;2.10;;
3133;SDS011;1577;49.912;10.924;2023-12-28T13:10:47;2.90;;;2.60;;
3133;SDS011;1577;49.912;10.924;2023-12-28T13:13:14;2.47;;;2.00;;
3133;SDS011;1577;49.912;10.924;2023-12-28T13:15:40;4.50;;;2.30;;
3133;SDS011;1577;49.912;10.924;2023-12-28T13:18:06;3.13;;;2.20;;
3133;SDS011;1577;49.912;10.924;2023-12-28T13:20:31;2.20;;;2.00;;
3133;SDS011;1577;49.912;10.924;2023-12-28T13:22:57;1.90;;;1.80;;
3133;SDS011;1577;49.912;10.924;2023-12-28T13:25:23;2.57;;;2.30;;
3133;SDS011;1577;49.912;10.924;2023-12-28T13:27:48;2.77;;;2.10;;
3133;SDS011;1577;49.912;10.924;2023-12-28T13:30:14;3.70;;;2.43;;
3133;SDS011;1577;49.912;10.924;2023-12-28T13:32:39;4.90;;;3.80;;
3133;SDS011;1577;49.912;10.924;2023-12-28T13:35:05;7.90;;;3.13;;
3133;SDS011;1577;49.912;10.924;2023-12-28T13:37:31;4.43;;;2.83;;
3133;SDS011;1577;49.912;10.924;2023-12-28T13:39:57;2.97;;;2.67;;
3133;SDS011;1577;49.912;10.924;2023-12-28T13:42:22;1.83;;;1.70;;
3133;SDS011;1577;49.912;10.924;2023-12-28T13:44:48;2.57;;;2.13;;
3133;SDS011;1577;49.912;10.924;2023-12-28T13:47:14;1.87;;;1.77;;
3133;SDS011;1577;49.912;10.924;2023-12-28T13:49:39;2.20;;;1.87;;
3133;SDS011;1577;49.912;10.924;2023-12-28T13:52:05;4.80;;;2.90;;
3133;SDS011;1577;49.912;10.924;2023-12-28T13:54:30;2.40;;;1.90;;
3133;SDS011;1577;49.912;10.924;2023-12-28T13:56:56;4.30;;;2.90;;
3133;SDS011;1577;49.912;10.924;2023-12-28T13:59:23;4.23;;;3.83;;
3133;SDS011;1577;49.912;10.924;2023-12-28T14:01:49;2.73;;;2.20;;
3133;SDS011;1577;49.912;10.924;2023-12-28T14:04:15;3.27;;;3.00;;
3133;SDS011;1577;49.912;10.924;2023-12-28T14:06:40;2.70;;;2.50;;
3133;SDS011;1577;49.912;10.924;2023-12-28T14:09:06;2.20;;;2.00;;
3133;SDS011;1577;49.912;10.924;2023-12-28T14:11:33;2.53;;;2.30;;
3133;SDS011;1577;49.912;10.924;2023-12-28T14:13:58;2.80;;;2.20;;
3133;SDS011;1577;49.912;10.924;2023-12-28T14:16:24;2.37;;;2.17;;
3133;SDS011;1577;49.912;10.924;2023-12-28T14:18:50;3.00;;;2.67;;
3133;SDS011;1577;49.912;10.924;2023-12-28T14:21:17;4.30;;;2.40;;
3133;SDS011;1577;49.912;10.924;2023-12-28T14:23:43;2.50;;;2.30;;
3133;SDS011;1577;49.912;10.924;2023-12-28T14:26:13;2.77;;;2.30;;
3133;SDS011;1577;49.912;10.924;2023-12-28T14:28:42;3.57;;;2.63;;
3133;SDS011;1577;49.912;10.924;2023-12-28T14:31:09;6.00;;;3.73;;
3133;SDS011;1577;49.912;10.924;2023-12-28T14:33:36;8.93;;;4.20;;
3133;SDS011;1577;49.912;10.924;2023-12-28T14:36:04;4.27;;;2.00;;
3133;SDS011;1577;49.912;10.924;2023-12-28T14:38:34;3.10;;;2.07;;
3133;SDS011;1577;49.912;10.924;2023-12-28T14:41:00;3.80;;;3.10;;
3133;SDS011;1577;49.912;10.924;2023-12-28T14:43:25;2.57;;;2.00;;
3133;SDS011;1577;49.912;10.924;2023-12-28T14:45:51;3.90;;;2.13;;
3133;SDS011;1577;49.912;10.924;2023-12-28T14:48:18;2.20;;;2.00;;
3133;SDS011;1577;49.912;10.924;2023-12-28T14:50:43;3.63;;;1.87;;
3133;SDS011;1577;49.912;10.924;2023-12-28T14:53:09;3.90;;;1.73;;
3133;SDS011;1577;49.912;10.924;2023-12-28T14:55:35;2.90;;;2.30;;
3133;SDS011;1577;49.912;10.924;2023-12-28T14:58:00;2.77;;;2.00;;
3133;SDS011;1577;49.912;10.924;2023-12-28T15:00:27;4.50;;;2.30;;
3133;SDS011;1577;49.912;10.924;2023-12-28T15:02:52;3.93;;;2.33;;